CMA CGM Indus — CQII9 — position and weather

sailwx.info

Track history (hours):
 
Tides and Currents Weather Stations Pressure Air Temp Water Temp Dewpoint Dewpoint Depression Visibility Wind Speed Wind Dir Waves Ship Positions

CMA CGM Indus

Last reported at 2017-Nov-25 21:57 UTC. Time now 2017-Dec-16 12:57 UTC.
Position N 36°07' E 014°34'.
Warning: this ship's position is 20 days out of date.

Length 300 m; draft 12.3 m.

Type: Ship (hazmat cat A). MMSI: 255805973.

Date/timePositionNaut miles runAvg speedWind from/ knotsBaromVisibWave heightAir tempDewpointWater temp
2017-Nov-25 21:57N 36°07' E 014°34'817.7
2017-Nov-25 21:30N 36°11' E 014°25'917.7
2017-Nov-25 21:00N 36°15' E 014°15'917.8
2017-Nov-25 20:30N 36°19' E 014°05'917.6
2017-Nov-25 20:00N 36°23' E 013°55'917.5
2017-Nov-25 19:30N 36°27' E 013°45'21617.3
2017-Nov-25 07:02N 37°42' E 009°32'118.2
2017-Nov-25 07:00N 37°42' E 009°32'1018.5
2017-Nov-25 06:27N 37°42' E 009°19'1418.4
2017-Nov-25 05:41N 37°42' E 009°01'1018.2
2017-Nov-25 05:09N 37°42' E 008°49'318.0
2017-Nov-25 05:00N 37°42' E 008°45'918.0
2017-Nov-25 04:30N 37°41' E 008°34'917.9
2017-Nov-25 04:00N 37°40' E 008°23'918.1
2017-Nov-25 03:30N 37°39' E 008°11'918.4
2017-Nov-25 02:59N 37°38' E 007°59'918.6
2017-Nov-25 02:29N 37°37' E 007°48'918.2
2017-Nov-25 02:00N 37°36' E 007°37'4117.7
2017-Nov-24 23:41N 37°31' E 006°45'11817.9
2017-Nov-24 17:07N 37°17' E 004°18'218.0
2017-Nov-24 17:00N 37°17' E 004°15'1718.1
2017-Nov-24 16:05N 37°15' E 003°54'118.0
2017-Nov-24 16:00N 37°15' E 003°53'918.1
2017-Nov-24 15:30N 37°14' E 003°42'918.0
2017-Nov-24 15:00N 37°13' E 003°30'918.0
2017-Nov-24 14:30N 37°12' E 003°19'917.8
2017-Nov-24 14:00N 37°11' E 003°08'917.8
2017-Nov-24 13:30N 37°09' E 002°57'917.7
2017-Nov-24 13:00N 37°08' E 002°46'917.6
2017-Nov-24 12:30N 37°06' E 002°35'917.6
2017-Nov-24 12:00N 37°04' E 002°25'917.5
2017-Nov-24 11:30N 37°02' E 002°14'917.7
2017-Nov-24 11:00N 36°60' E 002°03'917.7
2017-Nov-24 10:30N 36°57' E 001°52'917.9
2017-Nov-24 10:00N 36°55' E 001°42'612.8
2017-Nov-24 09:31N 36°53' E 001°34'0 0.7
2017-Nov-24 09:00N 36°53' E 001°34'1 2.4
2017-Nov-24 08:30N 36°54' E 001°33'611.8
2017-Nov-24 08:00N 36°53' E 001°26'917.9
2017-Nov-24 07:30N 36°51' E 001°15'918.0
2017-Nov-24 07:00N 36°48' E 001°04'918.2
2017-Nov-24 06:30N 36°47' E 000°53'918.1
2017-Nov-24 06:00N 36°45' E 000°42'918.3
2017-Nov-24 05:30N 36°43' E 000°31'918.3
2017-Nov-24 05:00N 36°40' E 000°20'1717.7
2017-Nov-24 04:04N 36°36' W 000°00'117.4
2017-Nov-24 04:00N 36°36' W 000°02'917.3
2017-Nov-24 03:30N 36°35' W 000°12'917.5
2017-Nov-24 03:00N 36°33' W 000°23'917.5
2017-Nov-24 02:30N 36°31' W 000°33'917.5
2017-Nov-24 02:00N 36°29' W 000°44'917.5
2017-Nov-24 01:30N 36°27' W 000°55'917.4
2017-Nov-24 00:58N 36°25' W 001°06'1917.6
2017-Nov-23 23:52N 36°21' W 001°30'818.0
2017-Nov-23 23:26N 36°19' W 001°39'1618.1
2017-Nov-23 22:31N 36°16' W 001°59'017.2
2017-Nov-23 22:30N 36°16' W 001°59'15917.7
2017-Nov-23 13:33N 36°01' W 005°15'219.5
2017-Nov-23 13:28N 36°00' W 005°17'919.2
2017-Nov-23 13:00N 35°58' W 005°27'917.6
2017-Nov-23 12:29N 35°55' W 005°38'816.6
2017-Nov-23 12:00N 35°55' W 005°48'816.9
2017-Nov-23 11:30N 35°53' W 005°58'1317.4
2017-Nov-23 10:46N 35°54' W 006°14'617.6
2017-Nov-23 10:25N 35°54' W 006°22'717.4
2017-Nov-23 10:00N 35°54' W 006°31'817.2
2017-Nov-23 09:30N 35°55' W 006°41'917.6
2017-Nov-23 09:00N 35°55' W 006°52'917.3
2017-Nov-23 08:30N 35°55' W 007°03'917.3
2017-Nov-23 08:00N 35°55' W 007°13'917.3
2017-Nov-23 07:30N 35°56' W 007°24'917.3
2017-Nov-23 07:00N 35°56' W 007°35'917.2
2017-Nov-23 06:30N 35°56' W 007°45'917.0
2017-Nov-23 06:00N 35°56' W 007°56'917.1
2017-Nov-23 05:30N 35°57' W 008°06'917.2
2017-Nov-23 05:00N 35°57' W 008°17'917.4
2017-Nov-23 04:30N 35°57' W 008°28'917.3
2017-Nov-23 04:00N 35°57' W 008°39'817.0
2017-Nov-23 03:30N 35°58' W 008°49'917.4
2017-Nov-23 03:00N 35°58' W 008°60'917.4
2017-Nov-23 02:30N 35°59' W 009°10'917.3
2017-Nov-23 02:00N 35°60' W 009°21'917.2
2017-Nov-23 01:30N 36°00' W 009°32'917.3
2017-Nov-23 01:00N 36°01' W 009°42'917.2
2017-Nov-23 00:30N 36°02' W 009°53'816.9
2017-Nov-23 00:00N 36°03' W 010°03'816.7
2017-Nov-22 23:30N 36°03' W 010°14'816.9
2017-Nov-22 23:00N 36°04' W 010°24'917.5
2017-Nov-22 22:30N 36°05' W 010°35'917.4
2017-Nov-22 22:00N 36°06' W 010°46'917.3
2017-Nov-22 21:30N 36°07' W 010°56'917.1
2017-Nov-22 21:00N 36°07' W 011°07'817.0
2017-Nov-22 20:30N 36°08' W 011°17'  
Track history (hours):
 
Tides and Currents Weather Stations Pressure Air Temp Water Temp Dewpoint Dewpoint Depression Visibility Wind Speed Wind Dir Waves Ship Positions

CMA CGM Indus

Last reported at 2017-Nov-25 21:57 UTC. Time now 2017-Dec-16 12:57 UTC.
Position N 36°07' E 014°34'.
Warning: this ship's position is 20 days out of date.

Length 300 m; draft 12.3 m.

Type: Ship (hazmat cat A). MMSI: 255805973.

Date/timePositionNaut miles runAvg speedWind from/ knotsBaromVisibWave heightAir tempDewpointWater temp
2017-Nov-25 21:57N 36°07' E 014°34'817.7
2017-Nov-25 21:30N 36°11' E 014°25'917.7
2017-Nov-25 21:00N 36°15' E 014°15'917.8
2017-Nov-25 20:30N 36°19' E 014°05'917.6
2017-Nov-25 20:00N 36°23' E 013°55'917.5
2017-Nov-25 19:30N 36°27' E 013°45'21617.3
2017-Nov-25 07:02N 37°42' E 009°32'118.2
2017-Nov-25 07:00N 37°42' E 009°32'1018.5
2017-Nov-25 06:27N 37°42' E 009°19'1418.4
2017-Nov-25 05:41N 37°42' E 009°01'1018.2
2017-Nov-25 05:09N 37°42' E 008°49'318.0
2017-Nov-25 05:00N 37°42' E 008°45'918.0
2017-Nov-25 04:30N 37°41' E 008°34'917.9
2017-Nov-25 04:00N 37°40' E 008°23'918.1
2017-Nov-25 03:30N 37°39' E 008°11'918.4
2017-Nov-25 02:59N 37°38' E 007°59'918.6
2017-Nov-25 02:29N 37°37' E 007°48'918.2
2017-Nov-25 02:00N 37°36' E 007°37'4117.7
2017-Nov-24 23:41N 37°31' E 006°45'11817.9
2017-Nov-24 17:07N 37°17' E 004°18'218.0
2017-Nov-24 17:00N 37°17' E 004°15'1718.1
2017-Nov-24 16:05N 37°15' E 003°54'118.0
2017-Nov-24 16:00N 37°15' E 003°53'918.1
2017-Nov-24 15:30N 37°14' E 003°42'918.0
2017-Nov-24 15:00N 37°13' E 003°30'918.0
2017-Nov-24 14:30N 37°12' E 003°19'917.8
2017-Nov-24 14:00N 37°11' E 003°08'917.8
2017-Nov-24 13:30N 37°09' E 002°57'917.7
2017-Nov-24 13:00N 37°08' E 002°46'917.6
2017-Nov-24 12:30N 37°06' E 002°35'917.6
2017-Nov-24 12:00N 37°04' E 002°25'917.5
2017-Nov-24 11:30N 37°02' E 002°14'917.7
2017-Nov-24 11:00N 36°60' E 002°03'917.7
2017-Nov-24 10:30N 36°57' E 001°52'917.9
2017-Nov-24 10:00N 36°55' E 001°42'612.8
2017-Nov-24 09:31N 36°53' E 001°34'0 0.7
2017-Nov-24 09:00N 36°53' E 001°34'1 2.4
2017-Nov-24 08:30N 36°54' E 001°33'611.8
2017-Nov-24 08:00N 36°53' E 001°26'917.9
2017-Nov-24 07:30N 36°51' E 001°15'918.0
2017-Nov-24 07:00N 36°48' E 001°04'918.2
2017-Nov-24 06:30N 36°47' E 000°53'918.1
2017-Nov-24 06:00N 36°45' E 000°42'918.3
2017-Nov-24 05:30N 36°43' E 000°31'918.3
2017-Nov-24 05:00N 36°40' E 000°20'1717.7
2017-Nov-24 04:04N 36°36' W 000°00'117.4
2017-Nov-24 04:00N 36°36' W 000°02'917.3
2017-Nov-24 03:30N 36°35' W 000°12'917.5
2017-Nov-24 03:00N 36°33' W 000°23'917.5
2017-Nov-24 02:30N 36°31' W 000°33'917.5
2017-Nov-24 02:00N 36°29' W 000°44'917.5
2017-Nov-24 01:30N 36°27' W 000°55'917.4
2017-Nov-24 00:58N 36°25' W 001°06'1917.6
2017-Nov-23 23:52N 36°21' W 001°30'818.0
2017-Nov-23 23:26N 36°19' W 001°39'1618.1
2017-Nov-23 22:31N 36°16' W 001°59'017.2
2017-Nov-23 22:30N 36°16' W 001°59'15917.7
2017-Nov-23 13:33N 36°01' W 005°15'219.5
2017-Nov-23 13:28N 36°00' W 005°17'919.2
2017-Nov-23 13:00N 35°58' W 005°27'917.6
2017-Nov-23 12:29N 35°55' W 005°38'816.6
2017-Nov-23 12:00N 35°55' W 005°48'816.9
2017-Nov-23 11:30N 35°53' W 005°58'1317.4
2017-Nov-23 10:46N 35°54' W 006°14'617.6
2017-Nov-23 10:25N 35°54' W 006°22'717.4
2017-Nov-23 10:00N 35°54' W 006°31'817.2
2017-Nov-23 09:30N 35°55' W 006°41'917.6
2017-Nov-23 09:00N 35°55' W 006°52'917.3
2017-Nov-23 08:30N 35°55' W 007°03'917.3
2017-Nov-23 08:00N 35°55' W 007°13'917.3
2017-Nov-23 07:30N 35°56' W 007°24'917.3
2017-Nov-23 07:00N 35°56' W 007°35'917.2
2017-Nov-23 06:30N 35°56' W 007°45'917.0
2017-Nov-23 06:00N 35°56' W 007°56'917.1
2017-Nov-23 05:30N 35°57' W 008°06'917.2
2017-Nov-23 05:00N 35°57' W 008°17'917.4
2017-Nov-23 04:30N 35°57' W 008°28'917.3
2017-Nov-23 04:00N 35°57' W 008°39'817.0
2017-Nov-23 03:30N 35°58' W 008°49'917.4
2017-Nov-23 03:00N 35°58' W 008°60'917.4
2017-Nov-23 02:30N 35°59' W 009°10'917.3
2017-Nov-23 02:00N 35°60' W 009°21'917.2
2017-Nov-23 01:30N 36°00' W 009°32'917.3
2017-Nov-23 01:00N 36°01' W 009°42'917.2
2017-Nov-23 00:30N 36°02' W 009°53'816.9
2017-Nov-23 00:00N 36°03' W 010°03'816.7
2017-Nov-22 23:30N 36°03' W 010°14'816.9
2017-Nov-22 23:00N 36°04' W 010°24'917.5
2017-Nov-22 22:30N 36°05' W 010°35'917.4
2017-Nov-22 22:00N 36°06' W 010°46'917.3
2017-Nov-22 21:30N 36°07' W 010°56'917.1
2017-Nov-22 21:00N 36°07' W 011°07'817.0
2017-Nov-22 20:30N 36°08' W 011°17'  

Dump ship's entire track history